Time,TemperatureF,DewpointF,PressureIn,WindDirection,WindDirectionDegrees,WindSpeedMPH,WindSpeedGustMPH,Humidity,HourlyPrecipIn,Conditions,Clouds,dailyrainin,SoftwareType,DateUTC
2013-01-21 00:00:00,9.0,9.0,29.07,WNW,284,10.0,12.0,100,0.00,,,0.00,VWS V15.00,2013-01-21 06:00:00,
2013-01-21 00:04:00,8.9,8.9,29.07,West,277,5.0,11.0,100,0.00,,BKN055,0.00,VWS V14.01,2013-01-21 06:04:00,
2013-01-21 00:09:00,8.8,8.8,29.07,West,261,8.0,11.0,100,0.00,,BKN055,0.00,VWS V14.01,2013-01-21 06:09:00,
2013-01-21 00:10:00,8.9,8.9,29.07,West,270,7.0,12.0,100,0.00,,CLR,0.00,VWS V15.00,2013-01-21 06:10:00,
2013-01-21 00:14:00,8.6,8.6,29.07,WNW,286,7.0,11.0,100,0.00,,BKN055,0.00,VWS V14.01,2013-01-21 06:14:00,
2013-01-21 00:20:00,9.3,9.3,29.08,WNW,292,7.0,12.0,100,0.00,,,0.00,VWS V15.00,2013-01-21 06:20:00,
2013-01-21 00:25:00,8.5,8.5,29.07,WNW,292,7.0,13.0,100,0.00,,BKN055,0.00,VWS V14.01,2013-01-21 06:25:00,
2013-01-21 00:30:00,8.2,8.2,29.07,West,279,6.0,10.0,100,0.00,,BKN055,0.00,VWS V14.01,2013-01-21 06:30:00,
2013-01-21 00:36:00,8.1,8.1,29.06,WSW,258,9.0,10.0,100,0.00,,,0.00,VWS V14.01,2013-01-21 06:36:00,
2013-01-21 00:40:00,9.3,9.3,29.08,NW,315,8.0,13.0,100,0.00,,,0.00,VWS V15.00,2013-01-21 06:40:00,
2013-01-21 00:41:00,8.1,8.1,29.06,WSW,241,5.0,10.0,100,0.00,,,0.00,VWS V14.01,2013-01-21 06:41:00,
2013-01-21 00:46:00,8.0,8.0,29.06,West,266,2.0,10.0,100,0.00,,,0.00,VWS V14.01,2013-01-21 06:46:00,
2013-01-21 00:50:00,8.0,8.0,29.06,WSW,242,3.0,10.0,100,0.00,,,0.00,VWS V14.01,2013-01-21 06:50:00,
2013-01-21 00:55:00,7.9,7.9,29.06,West,264,8.0,10.0,100,0.00,,,0.00,VWS V14.01,2013-01-21 06:55:00,
2013-01-21 01:00:00,8.0,8.0,29.06,NW,316,8.0,11.0,100,0.00,,,0.00,VWS V14.01,2013-01-21 07:00:00,
2013-01-21 01:05:00,8.0,8.0,29.06,NNW,329,7.0,13.0,100,0.00,,,0.00,VWS V14.01,2013-01-21 07:05:00,
2013-01-21 01:10:00,7.9,7.9,29.06,WNW,282,10.0,13.0,100,0.00,,,0.00,VWS V14.01,2013-01-21 07:10:00,
2013-01-21 01:15:00,7.8,7.8,29.06,WNW,289,7.0,14.0,100,0.00,,,0.00,VWS V14.01,2013-01-21 07:15:00,
2013-01-21 01:20:00,7.7,7.7,29.06,West,276,12.0,14.0,100,0.00,,,0.00,VWS V14.01,2013-01-21 07:20:00,
2013-01-21 01:25:00,7.7,7.7,29.06,NW,318,8.0,14.0,100,0.00,,,0.00,VWS V14.01,2013-01-21 07:25:00,
2013-01-21 01:30:00,7.6,7.6,29.06,WNW,293,3.0,14.0,100,0.00,,,0.00,VWS V15.00,2013-01-21 07:30:00,
2013-01-21 01:31:00,7.6,7.6,29.06,WNW,286,6.0,6.0,100,0.00,,,0.00,VWS V14.01,2013-01-21 07:31:00,
2013-01-21 01:36:00,7.4,7.4,29.06,NW,323,12.0,15.0,100,0.00,,BKN044,0.00,VWS V14.01,2013-01-21 07:36:00,
2013-01-21 01:40:00,7.2,7.2,29.06,NNW,347,9.0,9.0,100,0.00,,BKN044,0.00,VWS V14.01,2013-01-21 07:40:00,
2013-01-21 01:45:00,7.0,7.0,29.06,North,356,5.0,12.0,100,0.00,,BKN044,0.00,VWS V14.01,2013-01-21 07:45:00,
2013-01-21 01:50:00,6.9,6.9,29.06,NNW,332,9.0,11.0,100,0.00,,BKN044,0.00,VWS V14.01,2013-01-21 07:50:00,
2013-01-21 01:55:00,6.8,6.8,29.06,WNW,302,5.0,11.0,100,0.00,,BKN044,0.00,VWS V14.01,2013-01-21 07:55:00,
2013-01-21 02:00:00,6.7,6.7,29.06,NW,323,4.0,5.0,100,0.00,,BKN044,0.00,VWS V14.01,2013-01-21 08:00:00,
2013-01-21 02:05:00,6.7,6.7,29.06,WNW,284,5.0,9.0,100,0.00,,BKN044,0.00,VWS V14.01,2013-01-21 08:05:00,
2013-01-21 02:10:00,6.6,6.6,29.06,NW,323,7.0,9.0,100,0.00,,BKN044,0.00,VWS V14.01,2013-01-21 08:10:00,
2013-01-21 02:15:00,6.4,6.4,29.06,WNW,296,5.0,12.0,100,0.00,,BKN044,0.00,VWS V14.01,2013-01-21 08:15:00,
2013-01-21 02:20:00,6.4,6.4,29.06,WNW,297,8.0,8.0,100,0.00,,BKN044,0.00,VWS V14.01,2013-01-21 08:20:00,
2013-01-21 02:25:00,6.3,6.3,29.05,NW,316,5.0,9.0,100,0.00,,BKN044,0.00,VWS V14.01,2013-01-21 08:25:00,
2013-01-21 02:30:00,6.3,6.3,29.05,West,271,8.0,8.0,100,0.00,,BKN044,0.00,VWS V14.01,2013-01-21 08:30:00,
2013-01-21 02:35:00,6.2,6.2,29.05,WNW,288,3.0,8.0,100,0.00,,,0.00,VWS V14.01,2013-01-21 08:35:00,
2013-01-21 02:40:00,6.2,6.2,29.05,WNW,302,4.0,4.0,100,0.00,,,0.00,VWS V14.01,2013-01-21 08:40:00,
2013-01-21 02:45:00,6.1,6.1,29.05,WNW,299,6.0,9.0,100,0.00,,,0.00,VWS V14.01,2013-01-21 08:45:00,
2013-01-21 02:50:00,6.0,6.0,29.04,WNW,301,4.0,8.0,100,0.00,,,0.00,VWS V14.01,2013-01-21 08:50:00,
2013-01-21 02:55:00,5.9,5.9,29.04,North,352,4.0,8.0,100,0.00,,,0.00,VWS V14.01,2013-01-21 08:55:00,
2013-01-21 03:00:00,5.9,5.9,29.04,NW,308,6.0,6.0,100,0.00,,,0.00,VWS V14.01,2013-01-21 09:00:00,
2013-01-21 03:05:00,5.9,5.9,29.04,NW,312,3.0,9.0,100,0.00,,,0.00,VWS V14.01,2013-01-21 09:05:00,
2013-01-21 03:10:00,5.9,5.9,29.04,NW,304,5.0,6.0,100,0.00,,,0.00,VWS V14.01,2013-01-21 09:10:00,
2013-01-21 03:15:00,5.9,5.9,29.04,West,277,3.0,6.0,100,0.00,,,0.00,VWS V14.01,2013-01-21 09:15:00,
2013-01-21 03:20:00,6.0,6.0,29.03,WNW,295,4.0,4.0,100,0.00,,,0.00,VWS V14.01,2013-01-21 09:20:00,
2013-01-21 03:25:00,6.1,6.1,29.03,WNW,289,7.0,12.0,100,0.00,,,0.00,VWS V14.01,2013-01-21 09:25:00,
2013-01-21 03:30:00,6.2,6.2,29.03,West,276,7.0,9.0,100,0.00,,,0.00,VWS V14.01,2013-01-21 09:30:00,
2013-01-21 03:35:00,6.1,6.1,29.03,West,262,9.0,12.0,100,0.00,,CLR,0.00,VWS V14.01,2013-01-21 09:35:00,
2013-01-21 03:40:00,6.0,6.0,29.02,WNW,287,9.0,10.0,100,0.00,,CLR,0.00,VWS V14.01,2013-01-21 09:40:00,
2013-01-21 03:45:00,6.1,6.1,29.02,WNW,284,10.0,12.0,100,0.00,,CLR,0.00,VWS V14.01,2013-01-21 09:45:00,
2013-01-21 03:50:00,6.0,6.0,29.03,WNW,292,12.0,12.0,100,0.00,,CLR,0.00,VWS V14.01,2013-01-21 09:50:00,
2013-01-21 03:55:00,5.9,5.9,29.03,WSW,249,10.0,14.0,100,0.00,,CLR,0.00,VWS V14.01,2013-01-21 09:55:00,
2013-01-21 04:00:00,5.7,5.7,29.03,WNW,291,7.0,9.0,100,0.00,,CLR,0.00,VWS V14.01,2013-01-21 10:00:00,
2013-01-21 04:05:00,5.7,5.7,29.03,West,272,3.0,10.0,100,0.00,,CLR,0.00,VWS V14.01,2013-01-21 10:05:00,
2013-01-21 04:10:00,5.6,5.6,29.02,WNW,290,7.0,15.0,100,0.00,,CLR,0.00,VWS V14.01,2013-01-21 10:10:00,
2013-01-21 04:15:00,5.3,5.3,29.03,WNW,297,9.0,15.0,100,0.00,,CLR,0.00,VWS V14.01,2013-01-21 10:15:00,
2013-01-21 04:20:00,5.1,5.1,29.03,West,264,10.0,12.0,100,0.00,,CLR,0.00,VWS V14.01,2013-01-21 10:20:00,
2013-01-21 04:25:00,4.9,4.9,29.03,WNW,299,6.0,17.0,100,0.00,,CLR,0.00,VWS V14.01,2013-01-21 10:25:00,
2013-01-21 04:30:00,4.7,4.7,29.03,WNW,284,12.0,14.0,100,0.00,,CLR,0.00,VWS V14.01,2013-01-21 10:30:00,
2013-01-21 04:35:00,4.4,4.4,29.03,WNW,283,13.0,15.0,100,0.00,,CLR,0.00,VWS V14.01,2013-01-21 10:35:00,
2013-01-21 04:40:00,4.1,4.1,29.02,NW,312,12.0,14.0,100,0.00,,BKN034,0.00,VWS V14.01,2013-01-21 10:40:00,
2013-01-21 04:45:00,3.9,3.9,29.03,West,280,11.0,16.0,100,0.00,,BKN034,0.00,VWS V14.01,2013-01-21 10:45:00,
2013-01-21 04:50:00,3.6,3.6,29.03,West,271,7.0,9.0,100,0.00,,OVC038,0.00,VWS V14.01,2013-01-21 10:50:00,
2013-01-21 04:55:00,3.4,3.4,29.03,NW,318,10.0,11.0,100,0.00,,OVC038,0.00,VWS V14.01,2013-01-21 10:55:00,
2013-01-21 05:00:00,3.2,3.2,29.03,WNW,298,10.0,10.0,100,0.00,,OVC038,0.00,VWS V14.01,2013-01-21 11:00:00,
2013-01-21 05:05:00,3.0,3.0,29.03,WNW,303,15.0,17.0,100,0.00,,OVC038,0.00,VWS V14.01,2013-01-21 11:05:00,
2013-01-21 05:10:00,2.8,2.8,29.03,WNW,295,11.0,14.0,100,0.00,,OVC038,0.00,VWS V14.01,2013-01-21 11:10:00,
2013-01-21 05:15:00,2.6,2.6,29.03,WNW,294,7.0,16.0,100,0.00,,OVC038,0.00,VWS V14.01,2013-01-21 11:15:00,
2013-01-21 05:20:00,2.3,2.3,29.03,West,275,14.0,16.0,100,0.00,,OVC038,0.00,VWS V14.01,2013-01-21 11:20:00,
2013-01-21 05:25:00,2.2,2.2,29.03,NW,318,15.0,18.0,100,0.00,,OVC038,0.00,VWS V14.01,2013-01-21 11:25:00,
2013-01-21 05:30:00,2.0,2.0,29.03,WNW,292,12.0,15.0,100,0.00,,OVC038,0.00,VWS V14.01,2013-01-21 11:30:00,
2013-01-21 05:35:00,1.8,1.8,29.04,WNW,287,13.0,16.0,100,0.00,,,0.00,VWS V14.01,2013-01-21 11:35:00,
2013-01-21 05:40:00,1.7,1.7,29.03,NW,304,4.0,6.0,100,0.00,,,0.00,VWS V14.01,2013-01-21 11:40:00,
2013-01-21 05:45:00,1.7,1.7,29.04,WNW,302,11.0,14.0,100,0.00,,,0.00,VWS V14.01,2013-01-21 11:45:00,
2013-01-21 05:50:00,1.6,1.6,29.04,WNW,291,6.0,7.0,100,0.00,,,0.00,VWS V14.01,2013-01-21 11:50:00,
2013-01-21 05:55:00,1.5,1.5,29.04,NW,318,9.0,12.0,100,0.00,,,0.00,VWS V14.01,2013-01-21 11:55:00,
2013-01-21 06:00:00,1.4,1.4,29.04,NW,325,9.0,13.0,100,0.00,,,0.00,VWS V14.01,2013-01-21 12:00:00,
2013-01-21 06:05:00,1.3,1.3,29.04,WNW,289,8.0,14.0,100,0.00,,,0.00,VWS V14.01,2013-01-21 12:05:00,
2013-01-21 06:10:00,1.4,1.4,29.04,NW,306,11.0,13.0,100,0.00,,,0.00,VWS V14.01,2013-01-21 12:10:00,
2013-01-21 06:15:00,1.3,1.3,29.04,NW,311,13.0,16.0,100,0.00,,,0.00,VWS V14.01,2013-01-21 12:15:00,
2013-01-21 06:20:00,1.3,1.3,29.04,NNW,328,5.0,11.0,100,0.00,,,0.00,VWS V14.01,2013-01-21 12:20:00,
2013-01-21 06:25:00,1.3,1.3,29.05,WNW,295,6.0,11.0,100,0.00,,,0.00,VWS V14.01,2013-01-21 12:25:00,
2013-01-21 06:30:00,1.2,1.2,29.05,WNW,286,12.0,15.0,100,0.00,,,0.00,VWS V14.01,2013-01-21 12:30:00,
2013-01-21 06:35:00,1.1,1.1,29.04,WNW,286,6.0,15.0,100,0.00,,,0.00,VWS V14.01,2013-01-21 12:35:00,
2013-01-21 06:40:00,0.9,0.9,29.04,West,281,11.0,11.0,100,0.00,,,0.00,VWS V14.01,2013-01-21 12:40:00,
2013-01-21 06:45:00,0.9,0.9,29.05,NNW,333,4.0,12.0,100,0.00,,,0.00,VWS V14.01,2013-01-21 12:45:00,
2013-01-21 06:50:00,0.8,0.8,29.05,North,1,10.0,14.0,100,0.00,,,0.00,VWS V14.01,2013-01-21 12:50:00,
2013-01-21 06:55:00,0.6,0.6,29.05,NW,306,10.0,17.0,100,0.00,,,0.00,VWS V14.01,2013-01-21 12:55:00,
2013-01-21 07:00:00,0.4,0.4,29.05,NW,304,5.0,7.0,100,0.00,,,0.00,VWS V14.01,2013-01-21 13:00:00,
2013-01-21 07:05:00,0.4,0.4,29.05,NNW,327,9.0,11.0,100,0.00,,OVC030,0.00,VWS V14.01,2013-01-21 13:05:00,
2013-01-21 07:10:00,0.2,0.2,29.05,NW,304,10.0,11.0,100,0.00,,OVC030,0.00,VWS V14.01,2013-01-21 13:10:00,
2013-01-21 07:15:00,0.2,0.2,29.06,WNW,301,8.0,12.0,100,0.00,,OVC030,0.00,VWS V14.01,2013-01-21 13:15:00,
2013-01-21 07:20:00,-0.1,0.0,29.06,NW,314,10.0,10.0,100,0.00,,OVC030,0.00,VWS V14.01,2013-01-21 13:20:00,
2013-01-21 07:25:00,-0.2,-0.2,29.06,NNW,331,9.0,17.0,100,0.00,,OVC030,0.00,VWS V14.01,2013-01-21 13:25:00,
2013-01-21 07:30:00,-0.2,-0.2,29.06,West,280,7.0,8.0,100,0.00,,OVC030,0.00,VWS V14.01,2013-01-21 13:30:00,
2013-01-21 07:35:00,-0.4,-0.4,29.06,WNW,298,8.0,13.0,100,0.00,,OVC030,0.00,VWS V14.01,2013-01-21 13:35:00,
2013-01-21 07:40:00,-0.5,-0.5,29.06,NW,322,10.0,11.0,100,0.00,,BKN041,0.00,VWS V14.01,2013-01-21 13:40:00,
2013-01-21 07:45:00,-0.6,-0.6,29.07,WNW,284,8.0,14.0,100,0.00,,BKN041,0.00,VWS V14.01,2013-01-21 13:45:00,
2013-01-21 07:50:00,-0.7,-0.7,29.07,WNW,302,9.0,12.0,100,0.00,,BKN041,0.00,VWS V14.01,2013-01-21 13:50:00,
2013-01-21 07:55:00,-0.7,-0.7,29.07,WNW,286,4.0,12.0,100,0.00,,BKN041,0.00,VWS V14.01,2013-01-21 13:55:00,
2013-01-21 08:00:00,-1.0,-1.0,29.07,WNW,286,12.0,12.0,100,0.00,,BKN041,0.00,VWS V14.01,2013-01-21 14:00:00,
2013-01-21 08:05:00,-1.1,-1.1,29.07,NW,316,12.0,14.0,100,0.00,,BKN041,0.00,VWS V14.01,2013-01-21 14:05:00,
2013-01-21 08:10:00,-1.2,-1.2,29.07,WNW,282,11.0,14.0,100,0.00,,BKN041,0.00,VWS V14.01,2013-01-21 14:10:00,
2013-01-21 08:15:00,-1.3,-1.3,29.07,NW,319,10.0,16.0,100,0.00,,BKN041,0.00,VWS V14.01,2013-01-21 14:15:00,
2013-01-21 08:20:00,-1.4,-1.4,29.08,WNW,298,9.0,16.0,100,0.00,,BKN041,0.00,VWS V14.01,2013-01-21 14:20:00,
2013-01-21 08:25:00,-1.5,-1.5,29.08,WNW,295,6.0,16.0,100,0.00,,BKN041,0.00,VWS V14.01,2013-01-21 14:25:00,
2013-01-21 08:30:00,-1.3,-1.3,29.08,WNW,284,5.0,7.0,100,0.00,,BKN041,0.00,VWS V14.01,2013-01-21 14:30:00,
2013-01-21 08:35:00,-1.3,-1.3,29.08,NW,317,8.0,16.0,100,0.00,,,0.00,VWS V14.01,2013-01-21 14:35:00,
2013-01-21 08:40:00,-1.3,-1.3,29.08,WNW,296,7.0,9.0,100,0.00,,,0.00,VWS V14.01,2013-01-21 14:40:00,
2013-01-21 08:45:00,-1.2,-1.2,29.08,NNW,341,10.0,13.0,100,0.00,,,0.00,VWS V14.01,2013-01-21 14:45:00,
2013-01-21 08:50:00,-1.2,-1.2,29.09,WNW,295,8.0,12.0,100,0.00,,,0.00,VWS V14.01,2013-01-21 14:50:00,
2013-01-21 08:55:00,-1.2,-1.2,29.09,NW,306,10.0,18.0,100,0.00,,SCT031,0.00,VWS V14.01,2013-01-21 14:55:00,
2013-01-21 09:00:00,-1.2,-1.2,29.09,NW,324,6.0,12.0,100,0.00,,SCT031,0.00,VWS V14.01,2013-01-21 15:00:00,
2013-01-21 09:05:00,-1.5,-1.5,29.09,WNW,298,12.0,19.0,100,0.00,,SCT031,0.00,VWS V14.01,2013-01-21 15:05:00,
2013-01-21 09:10:00,-1.5,-1.5,29.10,WNW,292,17.0,17.0,100,0.00,,SCT031,0.00,VWS V14.01,2013-01-21 15:10:00,
2013-01-21 09:15:00,-1.5,-1.5,29.10,WNW,301,11.0,18.0,100,0.00,,SCT031,0.00,VWS V14.01,2013-01-21 15:15:00,
2013-01-21 09:20:00,-1.5,-1.5,29.10,WNW,288,9.0,9.0,100,0.00,,SCT031,0.00,VWS V14.01,2013-01-21 15:20:00,
2013-01-21 09:25:00,-1.1,-1.1,29.10,NNW,344,1.0,13.0,100,0.00,,SCT031,0.00,VWS V14.01,2013-01-21 15:25:00,
2013-01-21 09:30:00,-1.0,-1.0,29.10,West,275,14.0,16.0,100,0.00,,SCT031,0.00,VWS V14.01,2013-01-21 15:30:00,
2013-01-21 09:35:00,-1.0,-1.0,29.10,West,276,7.0,16.0,100,0.00,,SCT031,0.00,VWS V14.01,2013-01-21 15:35:00,
2013-01-21 09:40:00,-1.2,-1.2,29.10,WNW,301,8.0,13.0,100,0.00,,SCT021,0.00,VWS V14.01,2013-01-21 15:40:00,
2013-01-21 09:45:00,-1.0,-1.0,29.10,West,280,12.0,15.0,100,0.00,,SCT021,0.00,VWS V14.01,2013-01-21 15:45:00,
2013-01-21 09:50:00,-0.9,-0.9,29.10,WNW,289,14.0,14.0,100,0.00,,SCT021,0.00,VWS V14.01,2013-01-21 15:50:00,
2013-01-21 09:55:00,-0.8,-0.8,29.10,West,278,7.0,17.0,100,0.00,,SCT021,0.00,VWS V14.01,2013-01-21 15:55:00,
2013-01-21 10:00:00,-0.9,-0.9,29.10,North,351,4.0,8.0,100,0.00,,SCT021,0.00,VWS V14.01,2013-01-21 16:00:00,
2013-01-21 10:05:00,-0.7,-0.7,29.10,West,278,10.0,12.0,100,0.00,,SCT021,0.00,VWS V14.01,2013-01-21 16:05:00,
2013-01-21 10:10:00,-0.6,-0.6,29.10,NNW,328,10.0,14.0,100,0.00,,SCT021,0.00,VWS V14.01,2013-01-21 16:10:00,
2013-01-21 10:15:00,-0.5,-0.5,29.10,WNW,289,8.0,16.0,100,0.00,,SCT021,0.00,VWS V14.01,2013-01-21 16:15:00,
2013-01-21 10:20:00,-0.3,-0.3,29.10,NW,323,9.0,11.0,100,0.00,,SCT021,0.00,VWS V14.01,2013-01-21 16:20:00,
2013-01-21 10:25:00,-0.2,-0.2,29.10,West,263,7.0,14.0,100,0.00,,SCT021,0.00,VWS V14.01,2013-01-21 16:25:00,
2013-01-21 10:30:00,-0.1,0.0,29.10,NNW,327,10.0,10.0,100,0.00,,SCT021,0.00,VWS V14.01,2013-01-21 16:30:00,
2013-01-21 10:35:00,0.1,0.1,29.10,West,263,6.0,14.0,100,0.00,,SCT021,0.00,VWS V14.01,2013-01-21 16:35:00,
2013-01-21 10:40:00,0.2,0.2,29.10,WNW,298,15.0,17.0,100,0.00,,SCT030,0.00,VWS V14.01,2013-01-21 16:40:00,
2013-01-21 10:45:00,0.2,0.2,29.11,WNW,296,9.0,17.0,100,0.00,,SCT030,0.00,VWS V14.01,2013-01-21 16:45:00,
2013-01-21 10:50:00,0.5,0.5,29.11,West,281,7.0,16.0,100,0.00,,SCT030,0.00,VWS V14.01,2013-01-21 16:50:00,
2013-01-21 10:55:00,0.7,0.7,29.10,West,261,7.0,17.0,100,0.00,,SCT030,0.00,VWS V14.01,2013-01-21 16:55:00,
2013-01-21 11:00:00,0.8,0.8,29.11,WNW,291,10.0,13.0,100,0.00,,SCT030,0.00,VWS V14.01,2013-01-21 17:00:00,
2013-01-21 11:05:00,0.9,0.9,29.10,NW,323,7.0,21.0,100,0.00,,SCT030,0.00,VWS V14.01,2013-01-21 17:05:00,
2013-01-21 11:10:00,1.0,1.0,29.10,NW,309,11.0,12.0,100,0.00,,SCT030,0.00,VWS V14.01,2013-01-21 17:10:00,
2013-01-21 11:15:00,1.0,1.0,29.11,WNW,291,12.0,21.0,100,0.00,,SCT030,0.00,VWS V14.01,2013-01-21 17:15:00,
2013-01-21 11:20:00,0.7,0.7,29.10,NNW,336,10.0,14.0,100,0.00,,SCT030,0.00,VWS V14.01,2013-01-21 17:20:00,
2013-01-21 11:25:00,0.7,0.7,29.10,WNW,302,11.0,14.0,100,0.00,,SCT030,0.00,VWS V14.01,2013-01-21 17:25:00,
2013-01-21 11:30:00,0.9,0.9,29.10,NW,306,19.0,19.0,100,0.00,,SCT030,0.00,VWS V14.01,2013-01-21 17:30:00,
2013-01-21 11:35:00,0.9,0.9,29.10,WNW,302,6.0,19.0,100,0.00,,SCT033,0.00,VWS V14.01,2013-01-21 17:35:00,
2013-01-21 11:40:00,0.9,0.9,29.10,NW,305,17.0,17.0,100,0.00,,SCT033,0.00,VWS V14.01,2013-01-21 17:40:00,
2013-01-21 11:45:00,0.8,0.8,29.09,NW,314,12.0,18.0,100,0.00,,SCT033,0.00,VWS V14.01,2013-01-21 17:45:00,
2013-01-21 11:50:00,0.9,0.9,29.09,NNW,336,14.0,14.0,100,0.00,,SCT033,0.00,VWS V14.01,2013-01-21 17:50:00,
2013-01-21 11:55:00,1.0,1.0,29.09,NNW,330,10.0,25.0,100,0.00,,SCT033,0.00,VWS V14.01,2013-01-21 17:55:00,
2013-01-21 12:00:00,1.2,1.2,29.09,WNW,300,8.0,13.0,100,0.00,,SCT033,0.00,VWS V14.01,2013-01-21 18:00:00,
2013-01-21 12:05:00,1.5,1.5,29.09,West,271,14.0,15.0,100,0.00,,SCT033,0.00,VWS V14.01,2013-01-21 18:05:00,
2013-01-21 12:10:00,1.6,1.6,29.09,NW,314,14.0,17.0,100,0.00,,SCT033,0.00,VWS V14.01,2013-01-21 18:10:00,
2013-01-21 12:15:00,1.5,1.5,29.09,WSW,252,7.0,17.0,100,0.00,,SCT033,0.00,VWS V14.01,2013-01-21 18:15:00,
2013-01-21 12:20:00,1.9,1.9,29.09,West,264,14.0,19.0,100,0.00,,SCT033,0.00,VWS V14.01,2013-01-21 18:20:00,
2013-01-21 12:25:00,1.7,1.7,29.08,WNW,287,11.0,19.0,100,0.00,,SCT033,0.00,VWS V14.01,2013-01-21 18:25:00,
2013-01-21 12:30:00,1.7,1.7,29.08,NNW,347,13.0,13.0,100,0.00,,SCT033,0.00,VWS V14.01,2013-01-21 18:30:00,
2013-01-21 12:35:00,1.7,1.7,29.08,WNW,301,7.0,14.0,100,0.00,,SCT033,0.00,VWS V14.01,2013-01-21 18:35:00,
2013-01-21 12:40:00,2.0,2.0,29.08,NW,312,10.0,10.0,100,0.00,,BKN033,0.00,VWS V14.01,2013-01-21 18:40:00,
2013-01-21 12:45:00,2.3,2.3,29.08,WSW,248,4.0,15.0,100,0.00,,BKN033,0.00,VWS V14.01,2013-01-21 18:45:00,
2013-01-21 12:50:00,2.1,2.1,29.08,WNW,303,9.0,13.0,100,0.00,,BKN033,0.00,VWS V14.01,2013-01-21 18:50:00,
2013-01-21 12:55:00,2.2,2.2,29.08,WNW,282,15.0,18.0,100,0.00,,BKN033,0.00,VWS V14.01,2013-01-21 18:55:00,
2013-01-21 13:00:00,2.4,2.4,29.08,NW,319,15.0,16.0,100,0.00,,BKN033,0.00,VWS V14.01,2013-01-21 19:00:00,
2013-01-21 13:05:00,2.1,2.1,29.07,NNW,331,9.0,17.0,100,0.00,,BKN033,0.00,VWS V14.01,2013-01-21 19:05:00,
2013-01-21 13:10:00,2.2,2.2,29.08,WNW,300,9.0,10.0,100,0.00,,BKN033,0.00,VWS V14.01,2013-01-21 19:10:00,
2013-01-21 13:15:00,2.5,2.5,29.08,WNW,288,10.0,20.0,100,0.00,,BKN033,0.00,VWS V14.01,2013-01-21 19:15:00,
2013-01-21 13:20:00,2.3,2.3,29.07,West,264,10.0,13.0,100,0.00,,BKN033,0.00,VWS V14.01,2013-01-21 19:20:00,
2013-01-21 13:25:00,2.6,2.6,29.07,NW,312,17.0,19.0,100,0.00,,BKN033,0.00,VWS V14.01,2013-01-21 19:25:00,
2013-01-21 13:30:00,2.7,2.7,29.07,NW,322,12.0,13.0,100,0.00,,BKN033,0.00,VWS V14.01,2013-01-21 19:30:00,
2013-01-21 13:35:00,2.6,2.6,29.07,WNW,297,4.0,16.0,100,0.00,,BKN029,0.00,VWS V14.01,2013-01-21 19:35:00,
2013-01-21 13:40:00,2.3,2.3,29.07,NW,317,11.0,17.0,100,0.00,,BKN029,0.00,VWS V14.01,2013-01-21 19:40:00,
2013-01-21 13:45:00,2.6,2.6,29.07,West,266,6.0,17.0,100,0.00,,BKN029,0.00,VWS V14.01,2013-01-21 19:45:00,
2013-01-21 13:50:00,2.8,2.8,29.07,WNW,294,13.0,18.0,100,0.00,,BKN029,0.00,VWS V14.01,2013-01-21 19:50:00,
2013-01-21 13:55:00,2.6,2.6,29.07,WNW,291,14.0,18.0,100,0.00,,BKN032,0.00,VWS V14.01,2013-01-21 19:55:00,
2013-01-21 14:00:00,2.8,2.8,29.07,NW,326,11.0,11.0,100,0.00,,BKN032,0.00,VWS V14.01,2013-01-21 20:00:00,
2013-01-21 14:05:00,2.9,2.9,29.07,WNW,292,5.0,15.0,100,0.00,,BKN032,0.00,VWS V14.01,2013-01-21 20:05:00,
2013-01-21 14:10:00,3.0,3.0,29.08,NW,318,13.0,15.0,100,0.00,,BKN032,0.00,VWS V14.01,2013-01-21 20:10:00,
2013-01-21 14:15:00,2.7,2.7,29.07,NNW,342,11.0,19.0,100,0.00,,BKN032,0.00,VWS V14.01,2013-01-21 20:15:00,
2013-01-21 14:20:00,2.5,2.5,29.07,WNW,302,14.0,16.0,100,0.00,,BKN032,0.00,VWS V14.01,2013-01-21 20:20:00,
2013-01-21 14:25:00,2.6,2.6,29.07,WNW,294,6.0,16.0,100,0.00,,BKN032,0.00,VWS V14.01,2013-01-21 20:25:00,
2013-01-21 14:30:00,2.8,2.8,29.08,NW,326,14.0,15.0,100,0.00,,BKN032,0.00,VWS V14.01,2013-01-21 20:30:00,
2013-01-21 14:35:00,2.6,2.6,29.08,NNW,339,3.0,19.0,100,0.00,,BKN032,0.00,VWS V14.01,2013-01-21 20:35:00,
2013-01-21 14:40:00,2.8,2.8,29.08,NW,317,13.0,13.0,100,0.00,,BKN032,0.00,VWS V14.01,2013-01-21 20:40:00,
2013-01-21 14:45:00,2.6,2.6,29.08,WNW,298,14.0,17.0,100,0.00,,BKN032,0.00,VWS V14.01,2013-01-21 20:45:00,
2013-01-21 14:50:00,2.7,2.7,29.08,WNW,284,10.0,10.0,100,0.00,,BKN032,0.00,VWS V14.01,2013-01-21 20:50:00,
2013-01-21 14:55:00,2.9,2.9,29.08,West,269,14.0,17.0,100,0.00,,BKN032,0.00,VWS V14.01,2013-01-21 20:55:00,
2013-01-21 15:00:00,2.6,2.6,29.08,NNW,328,10.0,15.0,100,0.00,,BKN032,0.00,VWS V14.01,2013-01-21 21:00:00,
2013-01-21 15:05:00,2.6,2.6,29.08,WNW,286,12.0,15.0,100,0.00,,BKN032,0.00,VWS V14.01,2013-01-21 21:05:00,
2013-01-21 15:10:00,2.8,2.8,29.08,West,277,10.0,15.0,100,0.00,,BKN032,0.00,VWS V14.01,2013-01-21 21:10:00,
2013-01-21 15:15:00,2.7,2.7,29.08,WNW,303,13.0,17.0,100,0.00,,BKN032,0.00,VWS V14.01,2013-01-21 21:15:00,
2013-01-21 15:20:00,2.6,2.6,29.08,West,281,5.0,11.0,100,0.00,,BKN032,0.00,VWS V14.01,2013-01-21 21:20:00,
2013-01-21 15:25:00,2.5,2.5,29.08,NW,310,13.0,17.0,100,0.00,,BKN032,0.00,VWS V14.01,2013-01-21 21:25:00,
2013-01-21 15:30:00,2.4,2.4,29.08,WNW,299,8.0,11.0,100,0.00,,BKN032,0.00,VWS V14.01,2013-01-21 21:30:00,
2013-01-21 15:35:00,2.3,2.3,29.09,West,266,12.0,15.0,100,0.00,,FEW032,0.00,VWS V14.01,2013-01-21 21:35:00,
2013-01-21 15:40:00,2.4,2.4,29.09,WNW,294,10.0,12.0,100,0.00,,FEW032,0.00,VWS V14.01,2013-01-21 21:40:00,
2013-01-21 15:45:00,2.5,2.5,29.09,WNW,295,8.0,14.0,100,0.00,,FEW032,0.00,VWS V14.01,2013-01-21 21:45:00,
2013-01-21 15:50:00,2.3,2.3,29.09,WSW,245,4.0,13.0,100,0.00,,FEW032,0.00,VWS V14.01,2013-01-21 21:50:00,
2013-01-21 15:55:00,2.1,2.1,29.09,West,272,6.0,15.0,100,0.00,,FEW032,0.00,VWS V14.01,2013-01-21 21:55:00,
2013-01-21 16:00:00,1.9,1.9,29.09,NW,311,10.0,10.0,100,0.00,,FEW032,0.00,VWS V14.01,2013-01-21 22:00:00,
2013-01-21 16:05:00,1.7,1.7,29.09,NW,318,9.0,13.0,100,0.00,,FEW032,0.00,VWS V14.01,2013-01-21 22:05:00,
2013-01-21 16:10:00,1.5,1.5,29.09,WSW,255,13.0,15.0,100,0.00,,FEW032,0.00,VWS V14.01,2013-01-21 22:10:00,
2013-01-21 16:15:00,1.5,1.5,29.09,West,271,12.0,17.0,100,0.00,,FEW032,0.00,VWS V14.01,2013-01-21 22:15:00,
2013-01-21 16:20:00,1.4,1.4,29.09,West,263,9.0,10.0,100,0.00,,FEW032,0.00,VWS V14.01,2013-01-21 22:20:00,
2013-01-21 16:25:00,1.3,1.3,29.09,West,277,15.0,15.0,100,0.00,,FEW032,0.00,VWS V14.01,2013-01-21 22:25:00,
2013-01-21 16:30:00,1.2,1.2,29.09,WNW,289,8.0,8.0,100,0.00,,FEW032,0.00,VWS V14.01,2013-01-21 22:30:00,
2013-01-21 16:35:00,1.2,1.2,29.09,WNW,287,7.0,16.0,100,0.00,,SCT031,0.00,VWS V14.01,2013-01-21 22:35:00,
2013-01-21 16:40:00,1.1,1.1,29.09,West,263,12.0,12.0,100,0.00,,SCT031,0.00,VWS V14.01,2013-01-21 22:40:00,
2013-01-21 16:45:00,1.0,1.0,29.09,West,262,11.0,13.0,100,0.00,,SCT031,0.00,VWS V14.01,2013-01-21 22:45:00,
2013-01-21 16:50:00,0.9,0.9,29.09,West,281,12.0,12.0,100,0.00,,SCT031,0.00,VWS V14.01,2013-01-21 22:50:00,
2013-01-21 16:55:00,0.9,0.9,29.09,West,266,12.0,12.0,100,0.00,,SCT031,0.00,VWS V14.01,2013-01-21 22:55:00,
2013-01-21 17:00:00,0.7,0.7,29.09,WNW,282,7.0,8.0,100,0.00,,SCT031,0.00,VWS V14.01,2013-01-21 23:00:00,
2013-01-21 17:05:00,0.6,0.6,29.09,WNW,303,12.0,14.0,100,0.00,,SCT031,0.00,VWS V14.01,2013-01-21 23:05:00,
2013-01-21 17:10:00,0.5,0.5,29.09,West,278,6.0,7.0,100,0.00,,SCT031,0.00,VWS V14.01,2013-01-21 23:10:00,
2013-01-21 17:15:00,0.4,0.4,29.09,WNW,291,8.0,13.0,100,0.00,,SCT031,0.00,VWS V14.01,2013-01-21 23:15:00,
2013-01-21 17:20:00,0.4,0.4,29.09,West,276,8.0,8.0,100,0.00,,SCT031,0.00,VWS V14.01,2013-01-21 23:20:00,
2013-01-21 17:25:00,0.2,0.2,29.09,West,267,7.0,8.0,100,0.00,,SCT031,0.00,VWS V14.01,2013-01-21 23:25:00,
2013-01-21 17:30:00,0.2,0.2,29.10,WSW,256,3.0,8.0,100,0.00,,SCT031,0.00,VWS V14.01,2013-01-21 23:30:00,
2013-01-21 17:35:00,0.3,0.3,29.10,West,277,6.0,14.0,100,0.00,,SCT031,0.00,VWS V14.01,2013-01-21 23:35:00,
2013-01-21 17:40:00,0.1,0.1,29.10,WNW,297,4.0,6.0,100,0.00,,FEW027,0.00,VWS V14.01,2013-01-21 23:40:00,
2013-01-21 17:45:00,0.1,0.1,29.10,WSW,257,3.0,10.0,100,0.00,,FEW027,0.00,VWS V14.01,2013-01-21 23:45:00,
2013-01-21 17:50:00,0.1,0.0,29.10,West,272,4.0,4.0,100,0.00,,FEW027,0.00,VWS V14.01,2013-01-21 23:50:00,
2013-01-21 17:55:00,-0.1,-0.1,29.10,West,281,0.0,7.0,100,0.00,,FEW027,0.00,VWS V14.01,2013-01-21 23:55:00,
2013-01-21 18:00:00,-0.2,-0.2,29.10,WSW,256,8.0,8.0,100,0.00,,FEW027,0.00,VWS V14.01,2013-01-22 00:00:00,
2013-01-21 18:05:00,-0.2,-0.2,29.10,West,260,4.0,11.0,100,0.00,,CLR,0.00,VWS V14.01,2013-01-22 00:05:00,
2013-01-21 18:10:00,-0.2,-0.2,29.10,SW,230,2.0,5.0,100,0.00,,CLR,0.00,VWS V14.01,2013-01-22 00:10:00,
2013-01-21 18:15:00,-0.1,-0.1,29.10,WNW,288,4.0,10.0,100,0.00,,CLR,0.00,VWS V14.01,2013-01-22 00:15:00,
2013-01-21 18:20:00,-0.2,-0.2,29.10,WSW,252,5.0,5.0,100,0.00,,CLR,0.00,VWS V14.01,2013-01-22 00:20:00,
2013-01-21 18:25:00,-0.2,-0.2,29.10,WNW,283,8.0,9.0,100,0.00,,CLR,0.00,VWS V14.01,2013-01-22 00:25:00,
2013-01-21 18:30:00,-0.3,-0.3,29.10,WNW,289,9.0,10.0,100,0.00,,CLR,0.00,VWS V14.01,2013-01-22 00:30:00,
2013-01-21 18:35:00,-0.3,-0.3,29.10,West,262,10.0,11.0,100,0.00,,CLR,0.00,VWS V14.01,2013-01-22 00:35:00,
2013-01-21 18:40:00,-0.3,-0.3,29.11,West,268,8.0,8.0,100,0.00,,CLR,0.00,VWS V14.01,2013-01-22 00:40:00,
2013-01-21 18:45:00,-0.4,-0.4,29.11,West,265,8.0,10.0,100,0.00,,CLR,0.00,VWS V14.01,2013-01-22 00:45:00,
2013-01-21 18:50:00,-0.4,-0.4,29.11,West,262,5.0,7.0,100,0.00,,CLR,0.00,VWS V14.01,2013-01-22 00:50:00,
2013-01-21 18:55:00,-0.4,-0.4,29.11,WNW,298,4.0,11.0,100,0.00,,CLR,0.00,VWS V14.01,2013-01-22 00:55:00,
2013-01-21 19:00:00,-0.5,-0.5,29.11,West,279,15.0,15.0,100,0.00,,CLR,0.00,VWS V14.01,2013-01-22 01:00:00,
2013-01-21 19:05:00,-0.5,-0.5,29.11,WNW,287,5.0,16.0,100,0.00,,CLR,0.00,VWS V14.01,2013-01-22 01:05:00,
2013-01-21 19:10:00,-0.6,-0.6,29.11,WNW,286,7.0,7.0,100,0.00,,CLR,0.00,VWS V14.01,2013-01-22 01:10:00,
2013-01-21 19:15:00,-0.6,-0.6,29.11,WNW,291,6.0,10.0,100,0.00,,CLR,0.00,VWS V14.01,2013-01-22 01:15:00,
2013-01-21 19:20:00,-0.7,-0.7,29.12,WNW,296,3.0,3.0,100,0.00,,CLR,0.00,VWS V14.01,2013-01-22 01:20:00,
2013-01-21 19:25:00,-0.8,-0.8,29.11,WNW,300,11.0,14.0,100,0.00,,CLR,0.00,VWS V14.01,2013-01-22 01:25:00,
2013-01-21 19:30:00,-0.8,-0.8,29.12,WNW,286,6.0,10.0,100,0.00,,CLR,0.00,VWS V14.01,2013-01-22 01:30:00,
2013-01-21 19:35:00,-0.8,-0.8,29.12,WNW,287,4.0,10.0,100,0.00,,CLR,0.00,VWS V14.01,2013-01-22 01:35:00,
2013-01-21 19:40:00,-0.9,-0.9,29.12,WNW,297,4.0,4.0,100,0.00,,CLR,0.00,VWS V14.01,2013-01-22 01:40:00,
2013-01-21 19:45:00,-0.9,-0.9,29.12,NNW,337,12.0,13.0,100,0.00,,CLR,0.00,VWS V14.01,2013-01-22 01:45:00,
2013-01-21 19:50:00,-0.9,-0.9,29.12,West,278,9.0,13.0,100,0.00,,CLR,0.00,VWS V14.01,2013-01-22 01:50:00,
2013-01-21 19:55:00,-0.9,-0.9,29.12,WNW,293,6.0,13.0,100,0.00,,CLR,0.00,VWS V14.01,2013-01-22 01:55:00,
2013-01-21 20:00:00,-1.0,-1.0,29.12,West,276,7.0,7.0,100,0.00,,CLR,0.00,VWS V14.01,2013-01-22 02:00:00,
2013-01-21 20:05:00,-1.1,-1.1,29.12,WNW,283,7.0,9.0,100,0.00,,CLR,0.00,VWS V14.01,2013-01-22 02:05:00,
2013-01-21 20:10:00,-1.1,-1.1,29.12,West,277,7.0,8.0,100,0.00,,CLR,0.00,VWS V14.01,2013-01-22 02:10:00,
2013-01-21 20:15:00,-1.0,-1.0,29.12,West,273,9.0,12.0,100,0.00,,CLR,0.00,VWS V14.01,2013-01-22 02:15:00,
2013-01-21 20:20:00,-1.1,-1.1,29.12,WNW,301,8.0,8.0,100,0.00,,CLR,0.00,VWS V14.01,2013-01-22 02:20:00,
2013-01-21 20:25:00,-1.1,-1.1,29.12,WNW,295,5.0,16.0,100,0.00,,CLR,0.00,VWS V14.01,2013-01-22 02:25:00,
2013-01-21 20:30:00,-1.2,-1.2,29.12,WNW,282,3.0,5.0,100,0.00,,CLR,0.00,VWS V14.01,2013-01-22 02:30:00,
2013-01-21 20:35:00,-1.3,-1.3,29.12,West,277,4.0,9.0,100,0.00,,CLR,0.00,VWS V14.01,2013-01-22 02:35:00,
2013-01-21 20:40:00,-1.2,-1.2,29.12,West,277,10.0,10.0,100,0.00,,CLR,0.00,VWS V14.01,2013-01-22 02:40:00,
2013-01-21 20:45:00,-1.3,-1.3,29.13,WNW,285,8.0,11.0,100,0.00,,CLR,0.00,VWS V14.01,2013-01-22 02:45:00,
2013-01-21 20:50:00,-1.4,-1.4,29.13,WNW,301,9.0,10.0,100,0.00,,CLR,0.00,VWS V14.01,2013-01-22 02:50:00,
2013-01-21 20:55:00,-1.3,-1.3,29.13,WNW,293,4.0,12.0,100,0.00,,CLR,0.00,VWS V14.01,2013-01-22 02:55:00,
2013-01-21 21:00:00,-1.3,-1.3,29.13,WNW,299,9.0,9.0,100,0.00,,CLR,0.00,VWS V14.01,2013-01-22 03:00:00,
2013-01-21 21:05:00,-1.3,-1.3,29.13,West,281,4.0,10.0,100,0.00,,CLR,0.00,VWS V14.01,2013-01-22 03:05:00,
2013-01-21 21:10:00,-1.5,-1.5,29.13,WNW,299,4.0,4.0,100,0.00,,CLR,0.00,VWS V14.01,2013-01-22 03:10:00,
2013-01-21 21:15:00,-1.5,-1.5,29.14,WNW,286,7.0,10.0,100,0.00,,CLR,0.00,VWS V14.01,2013-01-22 03:15:00,
2013-01-21 21:20:00,-1.5,-1.5,29.14,NW,323,7.0,7.0,100,0.00,,CLR,0.00,VWS V14.01,2013-01-22 03:20:00,
2013-01-21 21:25:00,-1.6,-1.6,29.14,WNW,296,7.0,12.0,100,0.00,,CLR,0.00,VWS V14.01,2013-01-22 03:25:00,
2013-01-21 21:30:00,-1.6,-1.6,29.13,NW,326,8.0,8.0,100,0.00,,CLR,0.00,VWS V14.01,2013-01-22 03:30:00,
2013-01-21 21:35:00,-1.5,-1.5,29.14,WNW,290,12.0,12.0,100,0.00,,CLR,0.00,VWS V14.01,2013-01-22 03:35:00,
2013-01-21 21:40:00,-1.6,-1.6,29.14,NW,322,6.0,7.0,100,0.00,,CLR,0.00,VWS V14.01,2013-01-22 03:40:00,
2013-01-21 21:45:00,-1.6,-1.6,29.14,West,277,7.0,10.0,100,0.00,,CLR,0.00,VWS V14.01,2013-01-22 03:45:00,
2013-01-21 21:50:00,-1.7,-1.7,29.14,WNW,300,5.0,6.0,100,0.00,,CLR,0.00,VWS V14.01,2013-01-22 03:50:00,
2013-01-21 21:55:00,-1.8,-1.8,29.14,NW,309,4.0,9.0,100,0.00,,CLR,0.00,VWS V14.01,2013-01-22 03:55:00,
2013-01-21 22:00:00,-1.7,-1.7,29.14,NW,311,5.0,6.0,100,0.00,,CLR,0.00,VWS V14.01,2013-01-22 04:00:00,
2013-01-21 22:05:00,-1.8,-1.8,29.14,NNW,340,7.0,7.0,100,0.00,,CLR,0.00,VWS V14.01,2013-01-22 04:05:00,
2013-01-21 22:10:00,-1.8,-1.8,29.14,NNW,334,5.0,6.0,100,0.00,,CLR,0.00,VWS V14.01,2013-01-22 04:10:00,
2013-01-21 22:15:00,-1.8,-1.8,29.15,WNW,299,6.0,7.0,100,0.00,,CLR,0.00,VWS V14.01,2013-01-22 04:15:00,
2013-01-21 22:20:00,-1.9,-1.9,29.15,NW,311,5.0,10.0,100,0.00,,CLR,0.00,VWS V14.01,2013-01-22 04:20:00,
2013-01-21 22:25:00,-1.9,-1.9,29.15,NNW,338,4.0,10.0,100,0.00,,CLR,0.00,VWS V14.01,2013-01-22 04:25:00,
2013-01-21 22:30:00,-2.0,-2.0,29.15,NW,321,6.0,6.0,100,0.00,,CLR,0.00,VWS V14.01,2013-01-22 04:30:00,
2013-01-21 22:35:00,-2.0,-2.0,29.15,NW,326,5.0,7.0,100,0.00,,CLR,0.00,VWS V14.01,2013-01-22 04:35:00,
2013-01-21 22:40:00,-2.0,-2.0,29.15,NW,320,5.0,7.0,100,0.00,,FEW025,0.00,VWS V14.01,2013-01-22 04:40:00,
2013-01-21 22:45:00,-2.0,-2.0,29.15,North,359,1.0,9.0,100,0.00,,FEW025,0.00,VWS V14.01,2013-01-22 04:45:00,
2013-01-21 22:50:00,-2.0,-2.0,29.15,NW,315,6.0,9.0,100,0.00,,FEW025,0.00,VWS V14.01,2013-01-22 04:50:00,
2013-01-21 22:55:00,-2.0,-2.0,29.15,WNW,284,3.0,8.0,100,0.00,,,0.00,VWS V14.01,2013-01-22 04:55:00,
2013-01-21 23:00:00,-2.1,-2.1,29.16,NNW,346,2.0,8.0,100,0.00,,,0.00,VWS V14.01,2013-01-22 05:00:00,
2013-01-21 23:06:00,-2.2,-2.2,29.16,NW,308,3.0,5.0,100,0.00,,FEW025,0.00,VWS V14.01,2013-01-22 05:06:00,
2013-01-21 23:10:00,-2.1,-2.1,29.16,NW,320,8.0,10.0,100,0.00,,,0.00,VWS V15.00,2013-01-22 05:10:00,
2013-01-21 23:11:00,-2.2,-2.2,29.16,WNW,298,7.0,10.0,100,0.00,,,0.00,VWS V14.01,2013-01-22 05:11:00,
2013-01-21 23:16:00,-2.3,-2.3,29.16,WNW,296,4.0,10.0,100,0.00,,,0.00,VWS V14.01,2013-01-22 05:16:00,
2013-01-21 23:20:00,-2.3,-2.3,29.16,NW,324,3.0,10.0,100,0.00,,,0.00,VWS V15.00,2013-01-22 05:20:00,
2013-01-21 23:21:00,-2.2,-2.2,29.16,NW,308,7.0,7.0,100,0.00,,,0.00,VWS V14.01,2013-01-22 05:21:00,
2013-01-21 23:26:00,-2.3,-2.3,29.16,WNW,301,3.0,9.0,100,0.00,,,0.00,VWS V14.01,2013-01-22 05:26:00,
2013-01-21 23:30:00,-2.4,-2.4,29.16,NW,320,3.0,9.0,100,0.00,,,0.00,VWS V15.00,2013-01-22 05:30:00,
2013-01-21 23:31:00,-2.3,-2.3,29.16,WNW,299,6.0,6.0,100,0.00,,,0.00,VWS V14.01,2013-01-22 05:31:00,
2013-01-21 23:36:00,-2.3,-2.3,29.16,WNW,300,4.0,7.0,100,0.00,,SCT030,0.00,VWS V14.01,2013-01-22 05:36:00,
2013-01-21 23:40:00,-2.3,-2.3,29.15,NW,320,4.0,7.0,100,0.00,,,0.00,VWS V15.00,2013-01-22 05:40:00,
2013-01-21 23:41:00,-2.3,-2.3,29.16,NW,318,2.0,5.0,100,0.00,,SCT030,0.00,VWS V14.01,2013-01-22 05:41:00,
2013-01-21 23:46:00,-2.3,-2.3,29.15,North,353,2.0,9.0,100,0.00,,SCT030,0.00,VWS V14.01,2013-01-22 05:46:00,
2013-01-21 23:50:00,-2.2,-2.2,29.16,NW,319,4.0,9.0,100,0.00,,,0.00,VWS V15.00,2013-01-22 05:50:00,
2013-01-21 23:51:00,-2.4,-2.4,29.16,NW,309,5.0,6.0,100,0.00,,SCT030,0.00,VWS V14.01,2013-01-22 05:51:00,
2013-01-21 23:56:00,-2.4,-2.4,29.16,North,357,3.0,8.0,100,0.00,,SCT030,0.00,VWS V14.01,2013-01-22 05:56:00,